Time;durP1;ratioP1;P1;durP2;ratioP2;P2;SDS_P1;SDS_P2;PMS_P1;PMS_P2;Temp;Humidity;BMP_temperature;BMP_pressure;BME280_temperature;BME280_humidity;BME280_pressure;Samples;Min_cycle;Max_cycle;Signal;HPM_P1;HPM_P2
2021/05/06 00:00:07;;;;;;;;;;;;;;;19.55;41.23;100141.84;2085399;28;4032;-34
2021/05/06 00:02:31;;;;;;;;;;;;;;;19.58;41.28;100140.28;2094704;28;3976;-35
2021/05/06 00:07:48;;;;;;;;;;;;;;;19.61;41.47;100131.06;2102812;28;4020;-34
2021/05/06 00:14:28;;;;;;;;;;;;;;;19.65;41.40;100146.16;2102084;28;3886;-34
2021/05/06 00:32:14;;;;;;;;;;;;;;;19.76;42.13;100155.03;2102425;28;4023;-36
2021/05/06 00:33:01;;;;;;;;;;;;;;;19.76;42.16;100147.31;2091415;28;4094;-37
2021/05/06 00:34:02;;;;;;;;;;;;;;;19.77;42.10;100153.84;2102051;28;4725;-33
2021/05/06 00:35:03;;;;;;;;;;;;;;;19.77;42.21;100156.69;2101839;28;3873;-35
2021/05/06 00:36:04;;;;;;;;;;;;;;;19.77;42.25;100154.66;2101663;28;4043;-37
2021/05/06 00:37:05;;;;;;;;;;;;;;;19.77;42.23;100162.38;2102710;28;4077;-35
2021/05/06 00:38:12;;;;;;;;;;;;;;;19.78;42.20;100161.16;2098144;28;3996;-32
2021/05/06 00:39:17;;;;;;;;;;;;;;;19.79;42.31;100159.97;2100919;28;3873;-34
2021/05/06 00:40:19;;;;;;;;;;;;;;;19.79;42.17;100151.47;2101768;28;4048;-35
2021/05/06 00:43:54;;;;;;;;;;;;;;;19.80;42.46;100158.81;2101259;28;4041;-36
2021/05/06 00:46:43;;;;;;;;;;;;;;;19.82;42.54;100159.25;2060123;28;4850;-34
2021/05/06 00:54:49;;;;;;;;;;;;;;;19.84;42.62;100154.03;2102151;28;4021;-34
2021/05/06 00:58:39;;;;;;;;;;;;;;;19.85;42.70;100161.38;2098088;28;4759;-34
2021/05/06 01:02:20;;;;;;;;;;;;;;;19.86;42.52;100160.19;2100598;28;5029;-36
2021/05/06 01:03:43;;;;;;;;;;;;;;;19.87;42.67;100150.47;2102130;28;3877;-38
2021/05/06 01:04:52;;;;;;;;;;;;;;;19.87;42.70;100159.00;2102285;28;3881;-34
2021/05/06 01:05:57;;;;;;;;;;;;;;;19.87;42.77;100161.81;2101826;28;4017;-36
2021/05/06 01:07:09;;;;;;;;;;;;;;;19.89;42.73;100155.81;2100883;28;4868;-33
2021/05/06 01:08:22;;;;;;;;;;;;;;;19.89;42.84;100161.47;2101600;28;4000;-33
2021/05/06 01:09:26;;;;;;;;;;;;;;;19.89;42.82;100162.31;2101367;28;3993;-37
2021/05/06 01:11:40;;;;;;;;;;;;;;;19.90;42.80;100161.09;2101698;28;4071;-37
2021/05/06 01:12:43;;;;;;;;;;;;;;;19.90;42.80;100161.09;2102234;28;4174;-36
2021/05/06 01:13:46;;;;;;;;;;;;;;;19.90;42.97;100161.09;2100261;28;3993;-33
2021/05/06 01:14:46;;;;;;;;;;;;;;;19.91;42.91;100167.63;2100993;28;4145;-33
2021/05/06 01:15:47;;;;;;;;;;;;;;;19.93;43.32;100166.09;2100349;28;3814;-36
2021/05/06 01:16:48;;;;;;;;;;;;;;;19.93;43.14;100163.25;2102094;28;4004;-35
2021/05/06 01:17:49;;;;;;;;;;;;;;;19.94;43.09;100164.06;2099714;28;4026;-36
2021/05/06 01:18:50;;;;;;;;;;;;;;;19.94;42.98;100167.72;2097880;28;3851;-36
2021/05/06 01:19:50;;;;;;;;;;;;;;;19.94;43.16;100167.72;2102289;28;4074;-37
2021/05/06 01:20:54;;;;;;;;;;;;;;;19.94;43.06;100162.03;2101536;28;3994;-39
2021/05/06 01:21:54;;;;;;;;;;;;;;;19.95;43.14;100169.34;2102080;28;4089;-36
2021/05/06 01:22:55;;;;;;;;;;;;;;;19.94;43.05;100164.88;2102040;28;4035;-37
2021/05/06 01:23:56;;;;;;;;;;;;;;;19.95;43.12;100168.53;2100908;28;3807;-33
2021/05/06 01:24:59;;;;;;;;;;;;;;;19.95;43.13;100168.53;2101411;28;3753;-38
2021/05/06 01:26:03;;;;;;;;;;;;;;;19.95;43.14;100172.19;2100941;28;4872;-37
2021/05/06 01:27:18;;;;;;;;;;;;;;;19.95;43.12;100169.34;2100597;28;4047;-37
2021/05/06 01:28:22;;;;;;;;;;;;;;;19.95;43.23;100166.53;2099563;28;4042;-37
2021/05/06 01:29:29;;;;;;;;;;;;;;;19.96;43.25;100161.69;2100059;28;3882;-34
2021/05/06 01:30:46;;;;;;;;;;;;;;;19.96;43.11;100162.50;2094979;28;4054;-38
2021/05/06 01:31:56;;;;;;;;;;;;;;;19.98;43.02;100164.97;2100234;28;4130;-37
2021/05/06 01:32:59;;;;;;;;;;;;;;;19.97;43.20;100167.00;2101853;28;3821;-34
2021/05/06 01:35:05;;;;;;;;;;;;;;;19.98;43.24;100164.97;2101807;28;4070;-35
2021/05/06 01:36:19;;;;;;;;;;;;;;;19.97;43.22;100161.31;2101324;28;4042;-35
2021/05/06 01:37:30;;;;;;;;;;;;;;;19.98;43.19;100170.66;2100848;28;4083;-37
2021/05/06 01:40:17;;;;;;;;;;;;;;;19.98;43.30;100170.66;2102014;28;3985;-35
2021/05/06 01:42:39;;;;;;;;;;;;;;;20.00;43.34;100165.44;2100828;28;4310;-34
2021/05/06 01:46:32;;;;;;;;;;;;;;;20.01;43.33;100164.25;2097170;28;4103;-35
2021/05/06 01:47:48;;;;;;;;;;;;;;;20.00;43.37;100171.94;2101541;28;3916;-35
2021/05/06 01:49:11;;;;;;;;;;;;;;;20.00;43.44;100169.09;2100761;28;3946;-36
2021/05/06 01:57:46;;;;;;;;;;;;;;;20.03;43.46;100161.88;2102045;28;3845;-33
2021/05/06 01:58:52;;;;;;;;;;;;;;;20.02;43.57;100163.91;2100038;28;3974;-33
2021/05/06 01:59:56;;;;;;;;;;;;;;;20.03;43.50;100162.69;2101377;28;3960;-36
2021/05/06 02:01:01;;;;;;;;;;;;;;;20.03;43.39;100159.84;2102221;28;4023;-35
2021/05/06 02:02:02;;;;;;;;;;;;;;;20.05;43.43;100161.53;2101604;28;4806;-35
2021/05/06 02:03:03;;;;;;;;;;;;;;;20.05;43.40;100164.38;2101337;28;4011;-36
2021/05/06 02:04:04;;;;;;;;;;;;;;;20.05;43.42;100155.84;2100699;28;4069;-35
2021/05/06 02:05:04;;;;;;;;;;;;;;;20.05;43.55;100164.38;2099949;28;4046;-32
2021/05/06 02:06:05;;;;;;;;;;;;;;;20.05;43.46;100161.53;2101630;28;3971;-33
2021/05/06 02:07:06;;;;;;;;;;;;;;;20.06;43.51;100151.81;2100672;28;5080;-36
2021/05/06 02:08:07;;;;;;;;;;;;;;;20.05;43.50;100151.00;2101547;28;4047;-36
2021/05/06 02:09:08;;;;;;;;;;;;;;;20.05;43.53;100153.81;2100361;28;3837;-38
2021/05/06 02:10:08;;;;;;;;;;;;;;;20.06;43.53;100151.81;2101876;28;3895;-29
2021/05/06 02:11:09;;;;;;;;;;;;;;;20.06;43.62;100154.66;2101595;28;4107;-34
2021/05/06 02:12:11;;;;;;;;;;;;;;;20.06;43.59;100146.94;2099759;28;4040;-37
2021/05/06 02:13:14;;;;;;;;;;;;;;;20.06;43.56;100149.78;2101678;28;4035;-35
2021/05/06 02:14:15;;;;;;;;;;;;;;;20.06;43.54;100152.63;2101086;28;3861;-33
2021/05/06 02:15:23;;;;;;;;;;;;;;;20.07;43.56;100150.59;2101320;28;4206;-39
2021/05/06 02:16:34;;;;;;;;;;;;;;;20.06;43.54;100148.97;2100941;28;4023;-36
2021/05/06 02:17:35;;;;;;;;;;;;;;;20.07;43.59;100156.28;2100500;28;3909;-36
2021/05/06 02:18:37;;;;;;;;;;;;;;;20.08;43.72;100146.59;2100293;28;4048;-36
2021/05/06 02:19:40;;;;;;;;;;;;;;;20.08;43.74;100146.59;2101879;28;4031;-34
2021/05/06 02:20:41;;;;;;;;;;;;;;;20.07;43.61;100145.78;2101319;28;4024;-37
2021/05/06 02:21:42;;;;;;;;;;;;;;;20.08;43.73;100149.44;2101591;28;3904;-35
2021/05/06 02:22:43;;;;;;;;;;;;;;;20.08;43.73;100152.28;2100853;28;4056;-37
2021/05/06 02:23:44;;;;;;;;;;;;;;;20.08;43.80;100155.13;2101780;28;4075;-36
2021/05/06 02:24:45;;;;;;;;;;;;;;;20.08;43.71;100153.09;2100284;28;4044;-36
2021/05/06 02:25:45;;;;;;;;;;;;;;;20.08;43.69;100164.47;2100273;28;4288;-32
2021/05/06 02:26:46;;;;;;;;;;;;;;;20.09;43.67;100156.75;2100554;28;3826;-35
2021/05/06 02:27:47;;;;;;;;;;;;;;;20.09;43.83;100159.59;2101445;28;3799;-36
2021/05/06 02:28:48;;;;;;;;;;;;;;;20.08;43.72;100153.09;2100713;28;4220;-38
2021/05/06 02:29:48;;;;;;;;;;;;;;;20.09;43.78;100162.44;2100958;28;3863;-36
2021/05/06 02:30:50;;;;;;;;;;;;;;;20.09;43.78;100160.41;2101053;28;4014;-36
2021/05/06 02:31:50;;;;;;;;;;;;;;;20.10;43.68;100164.09;2101503;28;3991;-32
2021/05/06 02:32:52;;;;;;;;;;;;;;;20.09;43.75;100156.75;2101268;28;3984;-36
2021/05/06 02:33:52;;;;;;;;;;;;;;;20.10;43.63;100156.41;2100543;28;3970;-38
2021/05/06 02:34:53;;;;;;;;;;;;;;;20.11;43.71;100163.72;2101603;28;4056;-34
2021/05/06 02:35:54;;;;;;;;;;;;;;;20.11;43.77;100162.91;2100017;28;3961;-35
2021/05/06 02:36:55;;;;;;;;;;;;;;;20.12;43.78;100161.72;2101418;28;4002;-37
2021/05/06 02:37:56;;;;;;;;;;;;;;;20.10;43.77;100162.09;2101397;28;3996;-37
2021/05/06 02:38:57;;;;;;;;;;;;;;;20.12;43.75;100167.38;2100850;28;4013;-36
2021/05/06 02:39:58;;;;;;;;;;;;;;;20.11;43.83;100158.03;2101296;28;4465;-36
2021/05/06 02:40:59;;;;;;;;;;;;;;;20.12;43.69;100173.06;2101581;28;3886;-35
2021/05/06 02:41:59;;;;;;;;;;;;;;;20.11;43.79;100163.72;2101612;28;4151;-36
2021/05/06 02:43:00;;;;;;;;;;;;;;;20.12;43.86;100170.22;2100222;28;4123;-34
2021/05/06 02:44:01;;;;;;;;;;;;;;;20.13;43.81;100160.53;2100701;28;4005;-33
2021/05/06 02:45:02;;;;;;;;;;;;;;;20.12;43.92;100168.22;2101269;28;3890;-37
2021/05/06 02:46:03;;;;;;;;;;;;;;;20.12;43.80;100161.72;2100962;28;4028;-37
2021/05/06 02:47:04;;;;;;;;;;;;;;;20.12;43.84;100171.03;2100088;28;4022;-35
2021/05/06 02:48:05;;;;;;;;;;;;;;;20.12;43.88;100165.38;2101054;28;4019;-36
2021/05/06 02:49:06;;;;;;;;;;;;;;;20.13;43.95;100167.03;2101183;28;4027;-34
2021/05/06 02:50:10;;;;;;;;;;;;;;;20.14;43.93;100167.84;2101142;28;4036;-31
2021/05/06 02:51:11;;;;;;;;;;;;;;;20.14;43.89;100162.19;2100395;28;4052;-34
2021/05/06 02:53:22;;;;;;;;;;;;;;;20.13;43.85;100161.34;2099619;28;4059;-32
2021/05/06 02:54:24;;;;;;;;;;;;;;;20.15;43.95;100169.50;2101405;28;3865;-36
2021/05/06 02:55:44;;;;;;;;;;;;;;;20.16;43.94;100171.16;2101519;28;4016;-37
2021/05/06 02:56:58;;;;;;;;;;;;;;;20.15;44.03;100170.34;2100863;28;4218;-38
2021/05/06 02:58:20;;;;;;;;;;;;;;;20.15;43.97;100156.16;2101156;28;4757;-37
2021/05/06 03:02:44;;;;;;;;;;;;;;;20.16;44.00;100171.16;2100932;28;4042;-32
2021/05/06 03:03:18;;;;;;;;;;;;;;;20.17;44.04;100164.28;2099888;28;4706;-35
2021/05/06 03:03:49;;;;;;;;;;;;;;;20.16;44.14;100169.16;2086802;28;4070;-34
2021/05/06 03:04:50;;;;;;;;;;;;;;;20.17;44.29;100170.78;2101337;28;3988;-30
2021/05/06 03:05:55;;;;;;;;;;;;;;;20.17;44.19;100167.13;2101033;28;3728;-38
2021/05/06 03:07:02;;;;;;;;;;;;;;;20.17;44.23;100167.13;2100502;28;4004;-35
2021/05/06 03:08:08;;;;;;;;;;;;;;;20.17;44.27;100169.97;2100549;28;6096;-34
2021/05/06 03:09:28;;;;;;;;;;;;;;;20.18;44.30;100174.44;2101368;28;4033;-36
2021/05/06 03:10:51;;;;;;;;;;;;;;;20.18;44.32;100175.28;2093401;28;3933;-33
2021/05/06 03:12:05;;;;;;;;;;;;;;;20.18;44.25;100177.28;2100244;28;4063;-34
2021/05/06 03:13:33;;;;;;;;;;;;;;;20.19;44.35;100176.13;2101139;28;4502;-32
2021/05/06 03:23:39;;;;;;;;;;;;;;;20.19;44.44;100182.63;2094421;28;4030;-36
2021/05/06 03:24:42;;;;;;;;;;;;;;;20.20;44.55;100174.91;2093962;28;4029;-36
2021/05/06 03:25:43;;;;;;;;;;;;;;;20.20;44.56;100175.75;2094856;28;4000;-35
2021/05/06 03:26:44;;;;;;;;;;;;;;;20.21;44.53;100179.44;2092734;28;3802;-32
2021/05/06 03:27:51;;;;;;;;;;;;;;;20.21;44.51;100185.09;2093243;28;3898;-38
2021/05/06 03:28:56;;;;;;;;;;;;;;;20.20;44.62;100174.91;2094217;28;4030;-34
2021/05/06 03:30:29;;;;;;;;;;;;;;;20.21;44.60;100180.25;2092210;28;3916;-34
2021/05/06 03:41:38;;;;;;;;;;;;;;;20.22;44.86;100181.88;2093014;28;4068;-36
2021/05/06 03:42:05;;;;;;;;;;;;;;;20.22;44.89;100181.06;2094162;28;4026;-35
2021/05/06 03:43:23;;;;;;;;;;;;;;;20.23;44.90;100188.38;2093833;28;5058;-35
2021/05/06 03:46:02;;;;;;;;;;;;;;;20.24;44.85;100184.38;2094237;28;4110;-36
2021/05/06 03:47:31;;;;;;;;;;;;;;;20.24;44.91;100185.19;2093326;28;4693;-38
2021/05/06 03:50:01;;;;;;;;;;;;;;;20.25;44.98;100186.00;2094807;28;3865;-35
2021/05/06 04:13:33;;;;;;;;;;;;;;;20.28;45.15;100196.66;2093337;28;4793;-33
2021/05/06 04:17:14;;;;;;;;;;;;;;;20.29;45.22;100198.31;2093288;28;4818;-38
2021/05/06 04:18:24;;;;;;;;;;;;;;;20.30;45.14;100193.44;2098579;28;4030;-38
2021/05/06 04:22:21;;;;;;;;;;;;;;;20.30;45.27;100205.63;2098921;28;3945;-33
2021/05/06 04:26:10;;;;;;;;;;;;;;;20.29;45.35;100204.00;2101350;28;4006;-37
2021/05/06 04:27:18;;;;;;;;;;;;;;;20.31;45.33;100209.28;2102109;28;4071;-36
2021/05/06 04:28:46;;;;;;;;;;;;;;;20.30;45.29;100205.63;2102062;28;4103;-36
2021/05/06 04:30:58;;;;;;;;;;;;;;;20.29;45.22;100209.69;2100872;28;3898;-36
2021/05/06 04:36:05;;;;;;;;;;;;;;;20.31;45.27;100212.13;2102203;28;3963;-36
2021/05/06 04:37:06;;;;;;;;;;;;;;;20.31;45.27;100212.13;2101307;28;4894;-35
2021/05/06 04:38:07;;;;;;;;;;;;;;;20.31;45.37;100212.97;2101824;28;4124;-36
2021/05/06 04:39:12;;;;;;;;;;;;;;;20.31;45.36;100210.13;2102469;28;3836;-33
2021/05/06 04:42:53;;;;;;;;;;;;;;;20.31;45.20;100212.97;2101968;28;4137;-35
2021/05/06 04:45:01;;;;;;;;;;;;;;;20.32;45.28;100206.09;2102547;28;3986;-36
2021/05/06 04:46:06;;;;;;;;;;;;;;;20.32;45.23;100208.94;2100635;28;4868;-31
2021/05/06 04:53:38;;;;;;;;;;;;;;;20.32;45.29;100197.59;2102527;28;4051;-35
2021/05/06 04:54:59;;;;;;;;;;;;;;;20.33;45.26;100204.09;2102511;28;3960;-34
2021/05/06 05:04:43;;;;;;;;;;;;;;;20.36;45.61;100203.34;2101172;28;4016;-37
2021/05/06 05:05:44;;;;;;;;;;;;;;;20.36;45.74;100209.84;2101735;28;4036;-38
2021/05/06 05:07:02;;;;;;;;;;;;;;;20.36;45.69;100209.03;2102135;28;3869;-34
2021/05/06 05:08:08;;;;;;;;;;;;;;;20.36;45.72;100209.84;2100207;28;5023;-37
2021/05/06 05:10:36;;;;;;;;;;;;;;;20.37;45.85;100205.84;2101479;28;4019;-38
2021/05/06 05:11:46;;;;;;;;;;;;;;;20.37;45.95;100207.84;2098994;28;4024;-37
2021/05/06 05:18:00;;;;;;;;;;;;;;;20.36;45.89;100207.00;2101386;28;4068;-34
2021/05/06 05:19:29;;;;;;;;;;;;;;;20.36;45.89;100211.88;2101199;28;4793;-39
2021/05/06 05:24:01;;;;;;;;;;;;;;;20.36;45.77;100209.84;2100835;28;4868;-32
2021/05/06 05:25:05;;;;;;;;;;;;;;;20.36;45.82;100218.38;2102106;28;4070;-40
2021/05/06 05:26:09;;;;;;;;;;;;;;;20.36;45.71;100204.19;2100850;28;4010;-35
2021/05/06 05:27:09;;;;;;;;;;;;;;;20.37;45.90;100211.53;2101456;28;4048;-34
2021/05/06 05:28:10;;;;;;;;;;;;;;;20.36;45.85;100212.69;2098226;28;4161;-36
2021/05/06 05:29:11;;;;;;;;;;;;;;;20.37;45.89;100210.69;2101563;28;4066;-36
2021/05/06 05:30:12;;;;;;;;;;;;;;;20.38;45.90;100207.50;2101397;28;4181;-36
2021/05/06 05:31:31;;;;;;;;;;;;;;;20.38;45.93;100218.03;2099802;28;3857;-35
2021/05/06 05:32:32;;;;;;;;;;;;;;;20.37;45.83;100211.53;2101568;28;4161;-38
2021/05/06 05:33:39;;;;;;;;;;;;;;;20.38;45.95;100218.84;2101061;28;3867;-34
2021/05/06 05:34:43;;;;;;;;;;;;;;;20.37;45.92;100205.84;2101732;28;3867;-37
2021/05/06 05:35:57;;;;;;;;;;;;;;;20.37;45.79;100213.53;2102029;28;4007;-34
2021/05/06 05:36:58;;;;;;;;;;;;;;;20.36;45.86;100212.69;2100987;28;3922;-38
2021/05/06 05:38:10;;;;;;;;;;;;;;;20.36;45.79;100209.84;2101081;28;4666;-37
2021/05/06 05:39:26;;;;;;;;;;;;;;;20.37;45.75;100220.06;2102172;28;3894;-33
2021/05/06 05:40:37;;;;;;;;;;;;;;;20.37;45.92;100211.53;2102009;28;4061;-38
2021/05/06 05:41:59;;;;;;;;;;;;;;;20.38;45.90;100213.16;2101000;28;4006;-33
2021/05/06 05:43:10;;;;;;;;;;;;;;;20.38;45.81;100212.34;2101280;28;5957;-37
2021/05/06 05:44:34;;;;;;;;;;;;;;;20.37;45.79;100211.53;2100767;28;4067;-38
2021/05/06 05:49:01;;;;;;;;;;;;;;;20.38;45.82;100213.16;2100945;28;4015;-36
2021/05/06 05:54:33;;;;;;;;;;;;;;;20.39;45.99;100206.28;2050308;28;4857;-34
2021/05/06 05:55:08;;;;;;;;;;;;;;;20.40;45.95;100215.63;2099831;28;4652;-34
2021/05/06 05:56:08;;;;;;;;;;;;;;;20.40;45.97;100204.25;2096535;28;4092;-35
2021/05/06 05:57:09;;;;;;;;;;;;;;;20.39;45.93;100211.97;2101426;28;4182;-38
2021/05/06 05:58:10;;;;;;;;;;;;;;;20.39;45.99;100209.13;2102038;28;4064;-37
2021/05/06 05:59:11;;;;;;;;;;;;;;;20.40;46.02;100204.25;2100545;28;3904;-31
2021/05/06 06:00:11;;;;;;;;;;;;;;;20.40;45.92;100207.09;2101314;28;3874;-38
2021/05/06 06:01:12;;;;;;;;;;;;;;;20.40;45.68;100204.25;2095435;28;4028;-35
2021/05/06 06:02:13;;;;;;;;;;;;;;;20.40;45.95;100213.63;2096803;28;4012;-39
2021/05/06 06:03:14;;;;;;;;;;;;;;;20.40;45.96;100212.78;2100222;28;4036;-38
2021/05/06 06:04:15;;;;;;;;;;;;;;;20.40;45.98;100204.25;2101615;28;4042;-35
2021/05/06 06:05:16;;;;;;;;;;;;;;;20.41;46.13;100212.44;2101351;28;3848;-35
2021/05/06 06:06:17;;;;;;;;;;;;;;;20.41;46.04;100208.78;2100922;28;3833;-37
2021/05/06 06:07:18;;;;;;;;;;;;;;;20.39;45.99;100214.81;2099208;28;4050;-35
2021/05/06 06:08:23;;;;;;;;;;;;;;;20.40;46.04;100205.13;2100448;28;4111;-36
2021/05/06 06:09:23;;;;;;;;;;;;;;;20.40;45.92;100213.63;2091167;28;3884;-34
2021/05/06 06:10:25;;;;;;;;;;;;;;;20.41;45.98;100211.63;2091700;28;4070;-39
2021/05/06 06:11:26;;;;;;;;;;;;;;;20.41;46.06;100211.63;2092596;28;4083;-38
2021/05/06 06:12:27;;;;;;;;;;;;;;;20.40;46.07;100215.63;2100449;28;4257;-38
2021/05/06 06:13:27;;;;;;;;;;;;;;;20.39;46.02;100206.28;2099963;28;4050;-37
2021/05/06 06:14:37;;;;;;;;;;;;;;;20.41;45.95;100211.63;2099660;28;4084;-35
2021/05/06 06:16:41;;;;;;;;;;;;;;;20.40;46.12;100212.78;2100330;28;4082;-34
2021/05/06 06:17:44;;;;;;;;;;;;;;;20.41;46.06;100211.63;2101424;28;4124;-37
2021/05/06 06:18:51;;;;;;;;;;;;;;;20.40;46.11;100221.31;2100933;28;3879;-36
2021/05/06 06:19:53;;;;;;;;;;;;;;;20.40;46.07;100216.47;2101903;28;3854;-35
2021/05/06 06:21:21;;;;;;;;;;;;;;;20.40;46.02;100219.31;2101522;28;3944;-37
2021/05/06 06:22:18;;;;;;;;;;;;;;;20.40;46.07;100216.47;2099768;28;3984;-36
2021/05/06 06:23:19;;;;;;;;;;;;;;;20.40;45.83;100218.47;2101636;28;4047;-35
2021/05/06 06:24:19;;;;;;;;;;;;;;;20.39;45.89;100200.59;2100731;28;3876;-32
2021/05/06 06:25:20;;;;;;;;;;;;;;;20.41;45.92;100222.97;2100982;28;3889;-35
2021/05/06 06:26:21;;;;;;;;;;;;;;;20.40;45.85;100215.63;2101708;28;4045;-36
2021/05/06 06:27:22;;;;;;;;;;;;;;;20.39;45.94;100214.81;2101362;28;3967;-36
2021/05/06 06:28:25;;;;;;;;;;;;;;;20.39;45.96;100214.81;2100160;28;4047;-36
2021/05/06 06:29:30;;;;;;;;;;;;;;;20.40;45.89;100213.63;2101118;28;4053;-34
2021/05/06 06:30:31;;;;;;;;;;;;;;;20.39;45.85;100209.13;2100958;28;4177;-36
2021/05/06 06:31:49;;;;;;;;;;;;;;;20.40;45.93;100210.78;2100169;28;4019;-36
2021/05/06 06:32:50;;;;;;;;;;;;;;;20.40;45.88;100210.78;2101225;28;4016;-37
2021/05/06 06:33:51;;;;;;;;;;;;;;;20.40;46.01;100215.63;2100913;28;4188;-36
2021/05/06 06:34:52;;;;;;;;;;;;;;;20.40;45.89;100210.78;2101494;28;4006;-34
2021/05/06 06:35:53;;;;;;;;;;;;;;;20.40;45.82;100210.78;2101670;28;4014;-35
2021/05/06 06:36:54;;;;;;;;;;;;;;;20.40;45.86;100205.13;2101567;28;3968;-36
2021/05/06 06:37:54;;;;;;;;;;;;;;;20.41;45.81;100212.44;2101810;28;4058;-38
2021/05/06 06:38:55;;;;;;;;;;;;;;;20.41;45.91;100218.13;2100993;28;3950;-33
2021/05/06 06:39:57;;;;;;;;;;;;;;;20.42;45.95;100207.56;2100432;28;4108;-34
2021/05/06 06:40:57;;;;;;;;;;;;;;;20.42;45.82;100207.56;2101189;28;4200;-37
2021/05/06 06:41:58;;;;;;;;;;;;;;;20.41;45.90;100212.44;2100028;28;4767;-37
2021/05/06 06:42:59;;;;;;;;;;;;;;;20.41;45.88;100212.44;2101748;28;4052;-37
2021/05/06 06:44:01;;;;;;;;;;;;;;;20.42;45.83;100208.41;2100776;28;4040;-37
2021/05/06 06:45:02;;;;;;;;;;;;;;;20.41;45.91;100206.75;2100586;28;4056;-32
2021/05/06 06:46:04;;;;;;;;;;;;;;;20.41;45.76;100206.75;2101545;28;4031;-33
2021/05/06 06:47:06;;;;;;;;;;;;;;;20.42;45.90;100207.56;2097013;28;4025;-37
2021/05/06 06:48:07;;;;;;;;;;;;;;;20.42;45.92;100197.03;2099772;28;5041;-33
2021/05/06 06:49:09;;;;;;;;;;;;;;;20.41;45.67;100203.91;2100806;28;3884;-33
2021/05/06 06:50:10;;;;;;;;;;;;;;;20.42;45.78;100210.41;2100090;28;4070;-39
2021/05/06 06:51:11;;;;;;;;;;;;;;;20.41;45.83;100203.91;2100893;28;4014;-37
2021/05/06 06:52:12;;;;;;;;;;;;;;;20.41;45.87;100206.75;2099474;28;4095;-36
2021/05/06 06:53:14;;;;;;;;;;;;;;;20.42;45.71;100216.09;2101292;28;4060;-34
2021/05/06 06:54:14;;;;;;;;;;;;;;;20.41;45.78;100218.13;2100825;28;4044;-37
2021/05/06 06:55:15;;;;;;;;;;;;;;;20.42;45.76;100216.91;2100817;28;4122;-34
2021/05/06 06:56:17;;;;;;;;;;;;;;;20.41;45.72;100212.44;2101561;28;4098;-33
2021/05/06 06:57:18;;;;;;;;;;;;;;;20.41;45.66;100218.13;2101014;28;4045;-33
2021/05/06 06:58:19;;;;;;;;;;;;;;;20.42;45.72;100214.06;2100340;28;3900;-36
2021/05/06 06:59:20;;;;;;;;;;;;;;;20.42;45.70;100214.06;2101380;28;4026;-37
2021/05/06 07:00:21;;;;;;;;;;;;;;;20.41;45.85;100206.75;2098116;28;4017;-36
2021/05/06 07:01:22;;;;;;;;;;;;;;;20.42;45.71;100199.88;2100446;28;4058;-38
2021/05/06 07:02:23;;;;;;;;;;;;;;;20.42;45.76;100208.41;2100751;28;3862;-35
2021/05/06 07:03:23;;;;;;;;;;;;;;;20.43;45.80;100210.06;2100641;28;3908;-36
2021/05/06 07:04:24;;;;;;;;;;;;;;;20.43;46.07;100210.06;2098010;28;4141;-38
2021/05/06 07:05:25;;;;;;;;;;;;;;;20.42;45.91;100208.41;2101099;28;3988;-34
2021/05/06 07:06:25;;;;;;;;;;;;;;;20.41;45.74;100212.44;2096334;28;17070;-36
2021/05/06 07:07:26;;;;;;;;;;;;;;;20.40;45.89;100216.47;2100376;28;4052;-35
2021/05/06 07:08:29;;;;;;;;;;;;;;;20.40;45.76;100215.63;2100539;28;3853;-38
2021/05/06 07:09:30;;;;;;;;;;;;;;;20.39;45.80;100216.81;2100046;28;4039;-36
2021/05/06 07:10:31;;;;;;;;;;;;;;;20.39;45.85;100211.97;2102211;28;4046;-33
2021/05/06 07:11:34;;;;;;;;;;;;;;;20.40;45.76;100216.47;2101268;28;4022;-35
2021/05/06 07:12:35;;;;;;;;;;;;;;;20.40;45.84;100215.63;2100382;28;4067;-34
2021/05/06 07:13:36;;;;;;;;;;;;;;;20.39;45.66;100214.81;2101401;28;4025;-38
2021/05/06 07:14:38;;;;;;;;;;;;;;;20.39;45.65;100220.50;2099964;28;3868;-35
2021/05/06 07:15:45;;;;;;;;;;;;;;;20.39;45.72;100209.13;2101202;28;3996;-36
2021/05/06 07:16:46;;;;;;;;;;;;;;;20.39;45.67;100222.50;2100821;28;4005;-32
2021/05/06 07:17:47;;;;;;;;;;;;;;;20.38;45.49;100223.72;2100622;28;3861;-37
2021/05/06 07:18:48;;;;;;;;;;;;;;;20.33;45.32;100216.28;2100311;28;4082;-37
2021/05/06 07:19:49;;;;;;;;;;;;;;;20.29;44.66;100226.72;2100937;28;3985;-37
2021/05/06 07:20:50;;;;;;;;;;;;;;;20.28;44.45;100212.88;2100607;28;4009;-36
2021/05/06 07:21:50;;;;;;;;;;;;;;;20.28;44.20;100215.72;2099823;28;4163;-35
2021/05/06 07:22:51;;;;;;;;;;;;;;;20.28;44.36;100219.38;2101381;28;3984;-34
2021/05/06 07:23:54;;;;;;;;;;;;;;;20.29;44.46;100218.19;2101089;28;4031;-37
2021/05/06 07:24:58;;;;;;;;;;;;;;;20.31;44.71;100212.13;2101735;28;3942;-35
2021/05/06 07:26:00;;;;;;;;;;;;;;;20.31;44.75;100217.81;2101094;28;6782;-38
2021/05/06 07:27:04;;;;;;;;;;;;;;;20.32;44.67;100227.97;2101371;28;4011;-39
2021/05/06 07:28:06;;;;;;;;;;;;;;;20.32;44.66;100223.16;2100427;28;4281;-35
2021/05/06 07:29:14;;;;;;;;;;;;;;;20.33;44.65;100215.44;2101578;28;3967;-32
2021/05/06 07:30:16;;;;;;;;;;;;;;;20.33;44.68;100218.28;2101735;28;4340;-37
2021/05/06 07:31:18;;;;;;;;;;;;;;;20.33;44.67;100216.28;2102248;28;4019;-33
2021/05/06 07:32:20;;;;;;;;;;;;;;;20.34;44.65;100219.94;2101453;28;4043;-37
2021/05/06 07:33:23;;;;;;;;;;;;;;;20.34;44.50;100217.09;2101447;28;4103;-36
2021/05/06 07:34:27;;;;;;;;;;;;;;;20.34;44.61;100212.22;2101430;28;3874;-35
2021/05/06 07:35:29;;;;;;;;;;;;;;;20.33;44.62;100212.59;2101601;28;4014;-36
2021/05/06 07:36:31;;;;;;;;;;;;;;;20.33;44.52;100215.44;2101778;28;4028;-37
2021/05/06 07:37:35;;;;;;;;;;;;;;;20.33;44.53;100221.94;2092473;28;4053;-39
2021/05/06 07:38:39;;;;;;;;;;;;;;;20.33;44.49;100221.94;2092050;28;3899;-35
2021/05/06 07:39:43;;;;;;;;;;;;;;;20.33;44.57;100218.28;2095731;28;3991;-37
2021/05/06 07:40:46;;;;;;;;;;;;;;;20.33;44.48;100216.28;2101752;28;4014;-39
2021/05/06 07:41:49;;;;;;;;;;;;;;;20.34;44.40;100219.94;2101981;28;3793;-38
2021/05/06 07:42:52;;;;;;;;;;;;;;;20.32;44.43;100226.00;2101387;28;3859;-35
2021/05/06 07:43:55;;;;;;;;;;;;;;;20.33;44.40;100219.09;2101489;28;3936;-37
2021/05/06 07:44:59;;;;;;;;;;;;;;;20.32;44.32;100223.16;2098429;28;4843;-34
2021/05/06 07:46:03;;;;;;;;;;;;;;;20.33;44.36;100215.44;2099691;28;4056;-35
2021/05/06 07:47:10;;;;;;;;;;;;;;;20.32;44.45;100220.31;2100498;28;4034;-36
2021/05/06 07:48:15;;;;;;;;;;;;;;;20.32;44.44;100219.47;2101154;28;3903;-35
2021/05/06 07:49:19;;;;;;;;;;;;;;;20.32;44.34;100230.81;2101548;28;4035;-37
2021/05/06 07:50:23;;;;;;;;;;;;;;;20.32;44.43;100222.31;2101357;28;4034;-40
2021/05/06 07:51:27;;;;;;;;;;;;;;;20.32;44.44;100222.31;2101506;28;4028;-39
2021/05/06 07:52:33;;;;;;;;;;;;;;;20.32;44.30;100213.78;2100312;28;4106;-37
2021/05/06 07:53:48;;;;;;;;;;;;;;;20.32;44.35;100220.31;2099740;28;4145;-35
2021/05/06 07:54:52;;;;;;;;;;;;;;;20.31;44.25;100218.63;2100262;28;4049;-34
2021/05/06 07:55:53;;;;;;;;;;;;;;;20.32;44.23;100220.31;2100049;28;4029;-33
2021/05/06 07:56:54;;;;;;;;;;;;;;;20.32;44.28;100217.47;2100911;28;3896;-35
2021/05/06 07:57:55;;;;;;;;;;;;;;;20.32;44.35;100214.63;2101235;28;3977;-40
2021/05/06 07:58:56;;;;;;;;;;;;;;;20.33;44.27;100221.13;2101370;28;3977;-34
2021/05/06 07:59:56;;;;;;;;;;;;;;;20.32;44.34;100211.78;2099119;28;3847;-38
2021/05/06 08:00:58;;;;;;;;;;;;;;;20.32;44.27;100214.63;2100058;28;3986;-37
2021/05/06 08:01:59;;;;;;;;;;;;;;;20.32;44.24;100211.78;2100223;28;4753;-35
2021/05/06 08:03:00;;;;;;;;;;;;;;;20.32;44.25;100203.25;2101176;28;4059;-34
2021/05/06 08:04:02;;;;;;;;;;;;;;;20.33;44.12;100219.09;2100626;28;3901;-37
2021/05/06 08:05:03;;;;;;;;;;;;;;;20.32;44.14;100208.94;2102202;28;4040;-37
2021/05/06 08:06:05;;;;;;;;;;;;;;;20.33;44.20;100215.44;2102354;28;4028;-37
2021/05/06 08:07:05;;;;;;;;;;;;;;;20.32;44.24;100214.63;2103546;28;4048;-37
2021/05/06 08:08:06;;;;;;;;;;;;;;;20.33;44.19;100216.28;2102188;28;4530;-34
2021/05/06 08:09:07;;;;;;;;;;;;;;;20.33;44.16;100210.59;2102471;28;4004;-34
2021/05/06 08:10:08;;;;;;;;;;;;;;;20.32;44.21;100220.31;2103015;28;4079;-36
2021/05/06 08:11:09;;;;;;;;;;;;;;;20.33;44.19;100216.28;2102107;28;4070;-37
2021/05/06 08:12:12;;;;;;;;;;;;;;;20.32;44.12;100214.63;2102483;28;4064;-34